Bisha, Saudi Arabia
Current Conditions -  °F | °C
As of 11:00 AM on Monday 20 Oct 2014 (Local Time) from OEBH Reporting Station
Clear Clear  
Wind Chill: 86°   Ceiling: Unl
Heat Index: 86°   Visibility: 6mi
Dew Point: 55°   Wind: 7mph
Humidity: 35%   Direction: 190°S
Pressure: 30.03"   Gusts: NA
Location:  19.98°N, 42.62°E
Report Text: OEBH 200800Z 19006KT CAVOK 30/13 Q1017 NOSIG
Loading
Personal Weather Stations






























Interactive Weather Map
Tropical Storm Tracking
New forecast layout! Learn more

10-Day Weather Forecast

Advertisements
Track Severe Weather on mobile